createdAt,value
2022-07-31T00:00:48.273Z,20.3
2022-07-31T00:10:48.704Z,20.3
2022-07-31T00:20:49.564Z,20.1
2022-07-31T00:30:50.343Z,19.8
2022-07-31T00:40:50.690Z,19.3
2022-07-31T00:50:51.072Z,19
2022-07-31T01:00:51.951Z,18.7
2022-07-31T01:10:52.762Z,18.4
2022-07-31T01:20:53.748Z,18.2
2022-07-31T01:31:05.285Z,18.2
2022-07-31T01:40:54.828Z,18
2022-07-31T01:50:55.593Z,17.8
2022-07-31T02:00:56.418Z,17.6
2022-07-31T02:10:56.457Z,17.6
2022-07-31T02:20:56.707Z,17.5
2022-07-31T02:40:57.770Z,17.6
2022-07-31T02:50:58.165Z,18.4
2022-07-31T03:00:58.402Z,18.9
2022-07-31T03:10:59.012Z,18.7
2022-07-31T03:31:00.284Z,17.6
2022-07-31T03:41:00.968Z,17.7
2022-07-31T03:51:01.565Z,17.9
2022-07-31T04:01:03.146Z,18.5
2022-07-31T04:11:03.016Z,18.1
2022-07-31T04:21:03.840Z,18
2022-07-31T04:31:04.483Z,18.1
2022-07-31T04:41:05.452Z,18.4
2022-07-31T04:51:06.226Z,18.8
2022-07-31T05:01:06.614Z,19.3
2022-07-31T05:21:07.061Z,19.7
2022-07-31T05:31:07.742Z,19.9
2022-07-31T05:41:08.094Z,20.2
2022-07-31T05:51:08.960Z,20.5
2022-07-31T06:01:09.851Z,20.7
2022-07-31T06:11:10.841Z,20.8
2022-07-31T06:31:11.250Z,21.1
2022-07-31T06:41:11.705Z,21.3
2022-07-31T06:51:30.133Z,21.1
2022-07-31T07:01:12.944Z,21.1
2022-07-31T07:11:13.569Z,21
2022-07-31T07:21:14.467Z,21.3
2022-07-31T07:31:15.085Z,21.5
2022-07-31T07:41:18.397Z,21.5
2022-07-31T07:51:17.033Z,21.5
2022-07-31T08:01:17.197Z,21.7
2022-07-31T08:11:18.144Z,22.1
2022-07-31T08:21:18.716Z,21.8
2022-07-31T08:31:19.651Z,21.7
2022-07-31T08:41:20.137Z,21.7
2022-07-31T08:41:25.429Z,21.7
2022-07-31T08:51:25.670Z,21.5
2022-07-31T09:01:25.998Z,21.7
2022-07-31T09:21:27.334Z,21.2
2022-07-31T09:31:27.891Z,21.5
2022-07-31T09:41:56.066Z,21.5
2022-07-31T10:01:29.458Z,21.8
2022-07-31T10:11:30.168Z,21.9
2022-07-31T10:21:30.779Z,22.1
2022-07-31T10:41:31.644Z,23
2022-07-31T10:51:31.790Z,23.4
2022-07-31T11:01:32.319Z,23.8
2022-07-31T11:11:32.383Z,23.4
2022-07-31T11:21:37.943Z,23.1
2022-07-31T11:31:33.573Z,23
2022-07-31T11:51:34.807Z,23.2
2022-07-31T12:01:35.721Z,23
2022-07-31T12:11:35.821Z,23
2022-07-31T12:21:36.254Z,22.2
2022-07-31T12:31:36.726Z,23.1
2022-07-31T12:41:37.352Z,23.8
2022-07-31T13:01:38.683Z,24.8
2022-07-31T13:11:45.811Z,24.6
2022-07-31T13:21:48.785Z,24.4
2022-07-31T13:31:40.743Z,24.9
2022-07-31T13:41:41.392Z,25.4
2022-07-31T13:51:41.485Z,24.9
2022-07-31T14:02:02.323Z,24.6
2022-07-31T14:11:42.936Z,24.6
2022-07-31T14:21:49.985Z,24.4
2022-07-31T14:31:44.382Z,24.3
2022-07-31T14:41:44.764Z,25.1
2022-07-31T14:51:45.380Z,24.9
2022-07-31T15:01:45.626Z,24.4
2022-07-31T15:22:09.540Z,26.4
2022-07-31T15:31:47.762Z,26.2
2022-07-31T15:41:48.336Z,26.2
2022-07-31T15:51:49.210Z,25.2
2022-07-31T16:01:49.626Z,24.7
2022-07-31T16:12:04.154Z,24.1
2022-07-31T16:21:50.963Z,23.3
2022-07-31T16:31:51.593Z,23.7
2022-07-31T16:41:54.771Z,23.6
2022-07-31T16:51:53.258Z,23.4
2022-07-31T17:11:55.022Z,23.3
2022-07-31T17:31:56.199Z,19.4
2022-07-31T17:41:56.504Z,19.4
2022-07-31T17:51:59.478Z,19.7
2022-07-31T18:11:58.865Z,19.7
2022-07-31T18:21:59.461Z,19.8
2022-07-31T18:31:59.715Z,19.8
2022-07-31T18:52:01.594Z,19.8
2022-07-31T19:02:01.876Z,19.5
2022-07-31T19:22:02.887Z,19.3
2022-07-31T19:32:03.808Z,19.2
2022-07-31T19:52:11.525Z,19.2
2022-07-31T20:12:05.494Z,19.2
2022-07-31T20:22:06.054Z,19.2
2022-07-31T20:32:07.033Z,19.1
2022-07-31T20:42:07.708Z,19.2
2022-07-31T20:52:07.819Z,19.2
2022-07-31T21:02:07.936Z,19.2
2022-07-31T21:12:08.146Z,19.2
2022-07-31T21:32:08.798Z,19.2
2022-07-31T21:52:09.357Z,19
2022-07-31T22:02:09.817Z,19
2022-07-31T22:12:10.374Z,19
2022-07-31T22:22:10.274Z,19
2022-07-31T22:32:10.342Z,19
2022-07-31T22:42:10.559Z,19
2022-07-31T22:52:11.195Z,19
2022-07-31T23:02:18.673Z,19
2022-07-31T23:12:12.522Z,19
2022-07-31T23:22:13.492Z,18.9
2022-07-31T23:32:13.603Z,18.8
2022-07-31T23:42:13.699Z,18.7
